sensor_id;sensor_type;location;lat;lon;timestamp;temperature;humidity
26270;DHT22;15937;50.612;6.656;2022-10-16T00:00:10;14.10;99.90
26270;DHT22;15937;50.612;6.656;2022-10-16T00:04:12;14.10;99.90
26270;DHT22;15937;50.612;6.656;2022-10-16T00:08:14;14.10;99.90
26270;DHT22;15937;50.612;6.656;2022-10-16T00:12:15;14.00;99.90
26270;DHT22;15937;50.612;6.656;2022-10-16T00:16:17;14.00;99.90
26270;DHT22;15937;50.612;6.656;2022-10-16T00:20:19;14.00;99.90
26270;DHT22;15937;50.612;6.656;2022-10-16T00:24:21;14.00;99.90
26270;DHT22;15937;50.612;6.656;2022-10-16T00:28:23;14.00;99.90
26270;DHT22;15937;50.612;6.656;2022-10-16T00:32:24;14.00;99.90
26270;DHT22;15937;50.612;6.656;2022-10-16T00:36:27;14.00;99.90
26270;DHT22;15937;50.612;6.656;2022-10-16T00:40:29;14.00;99.90
26270;DHT22;15937;50.612;6.656;2022-10-16T00:44:45;13.90;99.90
26270;DHT22;15937;50.612;6.656;2022-10-16T00:48:59;13.90;99.90
26270;DHT22;15937;50.612;6.656;2022-10-16T00:53:01;13.90;99.90
26270;DHT22;15937;50.612;6.656;2022-10-16T00:57:04;13.90;99.90
26270;DHT22;15937;50.612;6.656;2022-10-16T01:01:06;13.90;99.90
26270;DHT22;15937;50.612;6.656;2022-10-16T01:05:08;13.80;99.90
26270;DHT22;15937;50.612;6.656;2022-10-16T01:13:35;13.80;99.90
26270;DHT22;15937;50.612;6.656;2022-10-16T01:17:45;13.70;99.90
26270;DHT22;15937;50.612;6.656;2022-10-16T01:21:49;13.60;99.90
26270;DHT22;15937;50.612;6.656;2022-10-16T01:29:59;13.40;99.90
26270;DHT22;15937;50.612;6.656;2022-10-16T01:34:05;13.40;99.90
26270;DHT22;15937;50.612;6.656;2022-10-16T01:38:10;13.30;99.90
26270;DHT22;15937;50.612;6.656;2022-10-16T01:42:19;13.30;99.90
26270;DHT22;15937;50.612;6.656;2022-10-16T01:46:22;13.30;99.90
26270;DHT22;15937;50.612;6.656;2022-10-16T01:50:24;13.30;99.90
26270;DHT22;15937;50.612;6.656;2022-10-16T01:54:26;13.30;99.90
26270;DHT22;15937;50.612;6.656;2022-10-16T01:58:29;13.40;99.90
26270;DHT22;15937;50.612;6.656;2022-10-16T02:02:35;13.40;99.90
26270;DHT22;15937;50.612;6.656;2022-10-16T02:06:39;13.40;99.90
26270;DHT22;15937;50.612;6.656;2022-10-16T02:10:41;13.40;99.90
26270;DHT22;15937;50.612;6.656;2022-10-16T02:14:42;13.40;99.90
26270;DHT22;15937;50.612;6.656;2022-10-16T02:18:44;13.40;99.90
26270;DHT22;15937;50.612;6.656;2022-10-16T02:22:46;13.40;99.90
26270;DHT22;15937;50.612;6.656;2022-10-16T02:26:53;13.40;99.90
26270;DHT22;15937;50.612;6.656;2022-10-16T02:30:57;13.40;99.90
26270;DHT22;15937;50.612;6.656;2022-10-16T02:35:00;13.40;99.90
26270;DHT22;15937;50.612;6.656;2022-10-16T02:39:02;13.40;99.90
26270;DHT22;15937;50.612;6.656;2022-10-16T02:43:06;13.40;99.90
26270;DHT22;15937;50.612;6.656;2022-10-16T02:47:08;13.40;99.90
26270;DHT22;15937;50.612;6.656;2022-10-16T02:51:15;13.30;99.90
26270;DHT22;15937;50.612;6.656;2022-10-16T02:55:17;13.40;99.90
26270;DHT22;15937;50.612;6.656;2022-10-16T02:59:19;13.40;99.90
26270;DHT22;15937;50.612;6.656;2022-10-16T03:03:20;13.40;99.90
26270;DHT22;15937;50.612;6.656;2022-10-16T03:07:22;13.40;99.90
26270;DHT22;15937;50.612;6.656;2022-10-16T03:11:24;13.40;99.90
26270;DHT22;15937;50.612;6.656;2022-10-16T03:15:26;13.50;99.90
26270;DHT22;15937;50.612;6.656;2022-10-16T03:19:29;13.40;99.90
26270;DHT22;15937;50.612;6.656;2022-10-16T03:23:31;13.40;99.90
26270;DHT22;15937;50.612;6.656;2022-10-16T03:27:33;13.40;99.90
26270;DHT22;15937;50.612;6.656;2022-10-16T03:31:34;13.40;99.90
26270;DHT22;15937;50.612;6.656;2022-10-16T03:35:36;13.40;99.90
26270;DHT22;15937;50.612;6.656;2022-10-16T03:39:38;13.40;99.90
26270;DHT22;15937;50.612;6.656;2022-10-16T03:43:39;13.40;99.90
26270;DHT22;15937;50.612;6.656;2022-10-16T03:47:41;13.40;99.90
26270;DHT22;15937;50.612;6.656;2022-10-16T03:51:42;13.50;99.90
26270;DHT22;15937;50.612;6.656;2022-10-16T03:55:45;13.40;99.90
26270;DHT22;15937;50.612;6.656;2022-10-16T03:59:47;13.50;99.90
26270;DHT22;15937;50.612;6.656;2022-10-16T04:03:48;13.50;99.90
26270;DHT22;15937;50.612;6.656;2022-10-16T04:07:50;13.60;99.90
26270;DHT22;15937;50.612;6.656;2022-10-16T04:11:52;13.60;99.90
26270;DHT22;15937;50.612;6.656;2022-10-16T04:15:53;13.60;99.90
26270;DHT22;15937;50.612;6.656;2022-10-16T04:19:55;13.60;99.90
26270;DHT22;15937;50.612;6.656;2022-10-16T04:23:56;13.70;99.90
26270;DHT22;15937;50.612;6.656;2022-10-16T04:27:58;13.70;99.90
26270;DHT22;15937;50.612;6.656;2022-10-16T04:32:00;13.70;99.90
26270;DHT22;15937;50.612;6.656;2022-10-16T04:36:02;13.70;99.90
26270;DHT22;15937;50.612;6.656;2022-10-16T04:40:04;13.70;99.90
26270;DHT22;15937;50.612;6.656;2022-10-16T04:44:05;13.70;99.90
26270;DHT22;15937;50.612;6.656;2022-10-16T04:48:07;13.60;99.90
26270;DHT22;15937;50.612;6.656;2022-10-16T04:52:09;13.60;99.90
26270;DHT22;15937;50.612;6.656;2022-10-16T04:56:11;13.60;99.90
26270;DHT22;15937;50.612;6.656;2022-10-16T05:00:12;13.50;99.90
26270;DHT22;15937;50.612;6.656;2022-10-16T05:04:14;13.60;99.90
26270;DHT22;15937;50.612;6.656;2022-10-16T05:08:16;13.60;99.90
26270;DHT22;15937;50.612;6.656;2022-10-16T05:12:18;13.60;99.90
26270;DHT22;15937;50.612;6.656;2022-10-16T05:16:19;13.60;99.90
26270;DHT22;15937;50.612;6.656;2022-10-16T05:20:24;13.60;99.90
26270;DHT22;15937;50.612;6.656;2022-10-16T05:24:26;13.60;99.90
26270;DHT22;15937;50.612;6.656;2022-10-16T05:28:28;13.70;99.90
26270;DHT22;15937;50.612;6.656;2022-10-16T05:32:31;13.70;99.90
26270;DHT22;15937;50.612;6.656;2022-10-16T05:36:34;13.80;99.90
26270;DHT22;15937;50.612;6.656;2022-10-16T05:40:36;13.80;99.90
26270;DHT22;15937;50.612;6.656;2022-10-16T05:44:37;13.80;99.90
26270;DHT22;15937;50.612;6.656;2022-10-16T05:48:40;13.90;99.90
26270;DHT22;15937;50.612;6.656;2022-10-16T05:52:42;14.00;99.90
26270;DHT22;15937;50.612;6.656;2022-10-16T05:56:45;13.90;99.90
26270;DHT22;15937;50.612;6.656;2022-10-16T06:00:57;14.00;99.90
26270;DHT22;15937;50.612;6.656;2022-10-16T06:04:59;14.00;99.90
26270;DHT22;15937;50.612;6.656;2022-10-16T06:09:02;14.00;99.90
26270;DHT22;15937;50.612;6.656;2022-10-16T06:13:04;13.90;99.90
26270;DHT22;15937;50.612;6.656;2022-10-16T06:17:06;13.90;99.90
26270;DHT22;15937;50.612;6.656;2022-10-16T06:21:12;13.90;99.90
26270;DHT22;15937;50.612;6.656;2022-10-16T06:25:15;13.90;99.90
26270;DHT22;15937;50.612;6.656;2022-10-16T06:29:17;13.90;99.90
26270;DHT22;15937;50.612;6.656;2022-10-16T06:33:18;13.90;99.90
26270;DHT22;15937;50.612;6.656;2022-10-16T06:37:20;13.90;99.90
26270;DHT22;15937;50.612;6.656;2022-10-16T06:41:23;14.00;99.90
26270;DHT22;15937;50.612;6.656;2022-10-16T06:45:25;14.00;99.90
26270;DHT22;15937;50.612;6.656;2022-10-16T06:49:27;14.10;99.90
26270;DHT22;15937;50.612;6.656;2022-10-16T06:53:30;14.00;99.90
26270;DHT22;15937;50.612;6.656;2022-10-16T06:57:40;14.00;99.90
26270;DHT22;15937;50.612;6.656;2022-10-16T07:01:43;14.10;99.90
26270;DHT22;15937;50.612;6.656;2022-10-16T07:05:44;14.20;99.90
26270;DHT22;15937;50.612;6.656;2022-10-16T07:09:47;14.10;99.90
26270;DHT22;15937;50.612;6.656;2022-10-16T07:13:49;14.10;99.90
26270;DHT22;15937;50.612;6.656;2022-10-16T07:17:56;14.10;99.90
26270;DHT22;15937;50.612;6.656;2022-10-16T07:21:58;14.20;99.90
26270;DHT22;15937;50.612;6.656;2022-10-16T07:26:01;14.20;99.90
26270;DHT22;15937;50.612;6.656;2022-10-16T07:30:03;14.20;99.90
26270;DHT22;15937;50.612;6.656;2022-10-16T07:34:10;14.30;99.90
26270;DHT22;15937;50.612;6.656;2022-10-16T07:38:12;14.30;99.90
26270;DHT22;15937;50.612;6.656;2022-10-16T07:42:16;14.40;99.90
26270;DHT22;15937;50.612;6.656;2022-10-16T07:46:18;14.40;99.90
26270;DHT22;15937;50.612;6.656;2022-10-16T07:50:20;14.40;99.90
26270;DHT22;15937;50.612;6.656;2022-10-16T07:54:22;14.40;99.90
26270;DHT22;15937;50.612;6.656;2022-10-16T07:58:24;14.40;99.90
26270;DHT22;15937;50.612;6.656;2022-10-16T08:02:27;14.30;99.90
26270;DHT22;15937;50.612;6.656;2022-10-16T08:06:29;14.40;99.90
26270;DHT22;15937;50.612;6.656;2022-10-16T08:10:33;14.40;99.90
26270;DHT22;15937;50.612;6.656;2022-10-16T08:14:34;14.50;99.90
26270;DHT22;15937;50.612;6.656;2022-10-16T08:18:37;14.70;99.90
26270;DHT22;15937;50.612;6.656;2022-10-16T08:22:39;14.90;99.90
26270;DHT22;15937;50.612;6.656;2022-10-16T08:26:41;15.20;99.90
26270;DHT22;15937;50.612;6.656;2022-10-16T08:30:43;15.20;99.90
26270;DHT22;15937;50.612;6.656;2022-10-16T08:34:45;15.40;99.90
26270;DHT22;15937;50.612;6.656;2022-10-16T08:38:47;15.40;99.90
26270;DHT22;15937;50.612;6.656;2022-10-16T08:46:58;15.70;99.90
26270;DHT22;15937;50.612;6.656;2022-10-16T08:51:02;15.80;99.90
26270;DHT22;15937;50.612;6.656;2022-10-16T08:55:05;16.00;99.90
26270;DHT22;15937;50.612;6.656;2022-10-16T08:59:09;16.10;99.90
26270;DHT22;15937;50.612;6.656;2022-10-16T09:03:56;16.20;99.90
26270;DHT22;15937;50.612;6.656;2022-10-16T09:07:42;16.10;99.90
26270;DHT22;15937;50.612;6.656;2022-10-16T09:11:53;16.40;99.90
26270;DHT22;15937;50.612;6.656;2022-10-16T09:16:11;16.40;99.90
26270;DHT22;15937;50.612;6.656;2022-10-16T09:20:19;16.40;99.90
26270;DHT22;15937;50.612;6.656;2022-10-16T09:24:23;16.80;99.90
26270;DHT22;15937;50.612;6.656;2022-10-16T09:28:29;16.80;99.90
26270;DHT22;15937;50.612;6.656;2022-10-16T09:32:31;16.90;99.90
26270;DHT22;15937;50.612;6.656;2022-10-16T09:36:42;17.00;99.90
26270;DHT22;15937;50.612;6.656;2022-10-16T09:40:45;16.90;99.90
26270;DHT22;15937;50.612;6.656;2022-10-16T09:45:04;17.10;99.90
26270;DHT22;15937;50.612;6.656;2022-10-16T09:49:21;17.30;99.90
26270;DHT22;15937;50.612;6.656;2022-10-16T09:53:23;17.40;99.90
26270;DHT22;15937;50.612;6.656;2022-10-16T09:57:27;17.40;99.90
26270;DHT22;15937;50.612;6.656;2022-10-16T10:01:36;17.50;99.90
26270;DHT22;15937;50.612;6.656;2022-10-16T10:05:39;17.70;99.90
26270;DHT22;15937;50.612;6.656;2022-10-16T10:09:42;17.80;99.90
26270;DHT22;15937;50.612;6.656;2022-10-16T10:13:45;17.80;99.90
26270;DHT22;15937;50.612;6.656;2022-10-16T10:17:48;17.70;99.90
26270;DHT22;15937;50.612;6.656;2022-10-16T10:21:50;17.90;99.90
26270;DHT22;15937;50.612;6.656;2022-10-16T10:30:00;17.90;99.90
26270;DHT22;15937;50.612;6.656;2022-10-16T10:46:20;18.40;99.90
26270;DHT22;15937;50.612;6.656;2022-10-16T10:50:26;18.20;99.90
26270;DHT22;15937;50.612;6.656;2022-10-16T11:07:17;18.60;99.90
26270;DHT22;15937;50.612;6.656;2022-10-16T11:15:41;18.60;99.90
26270;DHT22;15937;50.612;6.656;2022-10-16T11:32:19;19.00;99.90
26270;DHT22;15937;50.612;6.656;2022-10-16T11:36:31;18.70;99.90
26270;DHT22;15937;50.612;6.656;2022-10-16T11:40:35;18.80;99.90
26270;DHT22;15937;50.612;6.656;2022-10-16T11:53:23;18.80;99.90
26270;DHT22;15937;50.612;6.656;2022-10-16T11:57:27;18.90;99.90
26270;DHT22;15937;50.612;6.656;2022-10-16T12:01:38;19.20;99.90
26270;DHT22;15937;50.612;6.656;2022-10-16T12:05:50;19.00;99.90
26270;DHT22;15937;50.612;6.656;2022-10-16T12:09:56;19.10;99.90
26270;DHT22;15937;50.612;6.656;2022-10-16T12:18:22;18.80;99.90
26270;DHT22;15937;50.612;6.656;2022-10-16T12:22:24;19.00;99.90
26270;DHT22;15937;50.612;6.656;2022-10-16T12:26:32;19.00;99.90
26270;DHT22;15937;50.612;6.656;2022-10-16T12:30:35;19.00;99.90
26270;DHT22;15937;50.612;6.656;2022-10-16T12:34:39;19.00;99.90
26270;DHT22;15937;50.612;6.656;2022-10-16T12:38:50;19.10;99.90
26270;DHT22;15937;50.612;6.656;2022-10-16T12:42:53;19.10;99.90
26270;DHT22;15937;50.612;6.656;2022-10-16T12:46:56;19.10;99.90
26270;DHT22;15937;50.612;6.656;2022-10-16T12:50:57;19.20;99.90
26270;DHT22;15937;50.612;6.656;2022-10-16T12:55:18;19.30;99.90
26270;DHT22;15937;50.612;6.656;2022-10-16T13:07:59;19.30;99.90
26270;DHT22;15937;50.612;6.656;2022-10-16T13:16:10;19.30;99.90
26270;DHT22;15937;50.612;6.656;2022-10-16T13:28:29;19.20;99.90
26270;DHT22;15937;50.612;6.656;2022-10-16T13:32:32;19.10;99.90
26270;DHT22;15937;50.612;6.656;2022-10-16T13:36:43;19.30;99.90
26270;DHT22;15937;50.612;6.656;2022-10-16T13:40:49;19.30;99.90
26270;DHT22;15937;50.612;6.656;2022-10-16T13:44:52;19.20;99.90
26270;DHT22;15937;50.612;6.656;2022-10-16T13:49:02;19.20;99.90
26270;DHT22;15937;50.612;6.656;2022-10-16T13:53:07;19.20;99.90
26270;DHT22;15937;50.612;6.656;2022-10-16T13:57:14;19.10;99.90
26270;DHT22;15937;50.612;6.656;2022-10-16T14:01:28;19.00;99.90
26270;DHT22;15937;50.612;6.656;2022-10-16T14:05:33;19.00;99.90
26270;DHT22;15937;50.612;6.656;2022-10-16T14:09:36;19.20;99.90
26270;DHT22;15937;50.612;6.656;2022-10-16T14:13:39;19.10;99.90
26270;DHT22;15937;50.612;6.656;2022-10-16T14:17:45;19.10;99.90
26270;DHT22;15937;50.612;6.656;2022-10-16T14:21:51;19.10;99.90
26270;DHT22;15937;50.612;6.656;2022-10-16T14:25:54;19.10;99.90
26270;DHT22;15937;50.612;6.656;2022-10-16T14:30:19;19.10;99.90
26270;DHT22;15937;50.612;6.656;2022-10-16T14:34:23;19.10;99.90
26270;DHT22;15937;50.612;6.656;2022-10-16T14:38:29;19.00;99.90
26270;DHT22;15937;50.612;6.656;2022-10-16T14:42:30;18.90;99.90
26270;DHT22;15937;50.612;6.656;2022-10-16T14:46:36;18.90;99.90
26270;DHT22;15937;50.612;6.656;2022-10-16T14:50:38;18.90;99.90
26270;DHT22;15937;50.612;6.656;2022-10-16T14:54:40;18.90;99.90
26270;DHT22;15937;50.612;6.656;2022-10-16T14:58:42;18.90;99.90
26270;DHT22;15937;50.612;6.656;2022-10-16T15:02:44;18.90;99.90
26270;DHT22;15937;50.612;6.656;2022-10-16T15:06:46;18.80;99.90
26270;DHT22;15937;50.612;6.656;2022-10-16T15:10:48;18.70;99.90
26270;DHT22;15937;50.612;6.656;2022-10-16T15:14:49;18.50;99.90
26270;DHT22;15937;50.612;6.656;2022-10-16T15:18:51;18.60;99.90
26270;DHT22;15937;50.612;6.656;2022-10-16T15:22:54;18.50;99.90
26270;DHT22;15937;50.612;6.656;2022-10-16T15:26:56;18.50;99.90
26270;DHT22;15937;50.612;6.656;2022-10-16T15:30:57;18.40;99.90
26270;DHT22;15937;50.612;6.656;2022-10-16T15:34:59;18.40;99.90
26270;DHT22;15937;50.612;6.656;2022-10-16T15:39:05;18.40;99.90
26270;DHT22;15937;50.612;6.656;2022-10-16T15:43:10;18.30;99.90
26270;DHT22;15937;50.612;6.656;2022-10-16T15:47:15;18.30;99.90
26270;DHT22;15937;50.612;6.656;2022-10-16T15:51:17;18.20;99.90
26270;DHT22;15937;50.612;6.656;2022-10-16T15:55:19;18.20;99.90
26270;DHT22;15937;50.612;6.656;2022-10-16T15:59:21;18.20;99.90
26270;DHT22;15937;50.612;6.656;2022-10-16T16:03:22;18.10;99.90
26270;DHT22;15937;50.612;6.656;2022-10-16T16:07:24;18.10;99.90
26270;DHT22;15937;50.612;6.656;2022-10-16T16:11:32;18.10;99.90
26270;DHT22;15937;50.612;6.656;2022-10-16T16:15:42;18.00;99.90
26270;DHT22;15937;50.612;6.656;2022-10-16T16:19:45;17.90;99.90
26270;DHT22;15937;50.612;6.656;2022-10-16T16:23:50;17.90;99.90
26270;DHT22;15937;50.612;6.656;2022-10-16T16:27:57;17.80;99.90
26270;DHT22;15937;50.612;6.656;2022-10-16T16:31:59;17.80;99.90
26270;DHT22;15937;50.612;6.656;2022-10-16T16:36:02;17.80;99.90
26270;DHT22;15937;50.612;6.656;2022-10-16T16:40:11;17.70;99.90
26270;DHT22;15937;50.612;6.656;2022-10-16T16:44:13;17.70;99.90
26270;DHT22;15937;50.612;6.656;2022-10-16T16:48:18;17.70;99.90
26270;DHT22;15937;50.612;6.656;2022-10-16T16:52:22;17.70;99.90
26270;DHT22;15937;50.612;6.656;2022-10-16T16:56:24;17.60;99.90
26270;DHT22;15937;50.612;6.656;2022-10-16T17:00:27;17.50;99.90
26270;DHT22;15937;50.612;6.656;2022-10-16T17:04:29;17.50;99.90
26270;DHT22;15937;50.612;6.656;2022-10-16T17:08:32;17.40;99.90
26270;DHT22;15937;50.612;6.656;2022-10-16T17:12:34;17.40;99.90
26270;DHT22;15937;50.612;6.656;2022-10-16T17:16:37;17.40;99.90
26270;DHT22;15937;50.612;6.656;2022-10-16T17:20:41;17.40;99.90
26270;DHT22;15937;50.612;6.656;2022-10-16T17:24:43;17.40;99.90
26270;DHT22;15937;50.612;6.656;2022-10-16T17:28:45;17.30;99.90
26270;DHT22;15937;50.612;6.656;2022-10-16T17:32:47;17.20;99.90
26270;DHT22;15937;50.612;6.656;2022-10-16T17:36:49;17.10;99.90
26270;DHT22;15937;50.612;6.656;2022-10-16T17:40:51;17.10;99.90
26270;DHT22;15937;50.612;6.656;2022-10-16T17:44:53;17.10;99.90
26270;DHT22;15937;50.612;6.656;2022-10-16T17:48:56;17.10;99.90
26270;DHT22;15937;50.612;6.656;2022-10-16T17:52:59;17.00;99.90
26270;DHT22;15937;50.612;6.656;2022-10-16T17:57:01;17.00;99.90
26270;DHT22;15937;50.612;6.656;2022-10-16T18:01:10;17.10;99.90
26270;DHT22;15937;50.612;6.656;2022-10-16T18:05:16;17.00;99.90
26270;DHT22;15937;50.612;6.656;2022-10-16T18:09:18;17.00;99.90
26270;DHT22;15937;50.612;6.656;2022-10-16T18:13:22;17.00;99.90
26270;DHT22;15937;50.612;6.656;2022-10-16T18:17:25;16.90;99.90
26270;DHT22;15937;50.612;6.656;2022-10-16T18:21:34;17.00;99.90
26270;DHT22;15937;50.612;6.656;2022-10-16T18:25:37;17.00;99.90
26270;DHT22;15937;50.612;6.656;2022-10-16T18:29:38;17.00;99.90
26270;DHT22;15937;50.612;6.656;2022-10-16T18:33:41;17.10;99.90
26270;DHT22;15937;50.612;6.656;2022-10-16T18:37:49;17.10;99.90
26270;DHT22;15937;50.612;6.656;2022-10-16T18:41:53;17.10;99.90
26270;DHT22;15937;50.612;6.656;2022-10-16T18:46:01;17.10;99.90
26270;DHT22;15937;50.612;6.656;2022-10-16T18:50:04;17.10;99.90
26270;DHT22;15937;50.612;6.656;2022-10-16T18:54:12;17.10;99.90
26270;DHT22;15937;50.612;6.656;2022-10-16T18:58:14;17.10;99.90
26270;DHT22;15937;50.612;6.656;2022-10-16T19:02:16;17.10;99.90
26270;DHT22;15937;50.612;6.656;2022-10-16T19:06:22;17.10;99.90
26270;DHT22;15937;50.612;6.656;2022-10-16T19:10:24;17.10;99.90
26270;DHT22;15937;50.612;6.656;2022-10-16T19:14:26;17.10;99.90
26270;DHT22;15937;50.612;6.656;2022-10-16T19:18:31;17.10;99.90
26270;DHT22;15937;50.612;6.656;2022-10-16T19:22:39;17.10;99.90
26270;DHT22;15937;50.612;6.656;2022-10-16T19:26:55;17.10;99.90
26270;DHT22;15937;50.612;6.656;2022-10-16T19:31:03;17.10;99.90
26270;DHT22;15937;50.612;6.656;2022-10-16T19:35:07;17.00;99.90
26270;DHT22;15937;50.612;6.656;2022-10-16T19:39:11;17.00;99.90
26270;DHT22;15937;50.612;6.656;2022-10-16T19:43:13;17.00;99.90
26270;DHT22;15937;50.612;6.656;2022-10-16T19:47:15;17.00;99.90
26270;DHT22;15937;50.612;6.656;2022-10-16T19:51:21;16.90;99.90
26270;DHT22;15937;50.612;6.656;2022-10-16T19:55:24;16.80;99.90
26270;DHT22;15937;50.612;6.656;2022-10-16T19:59:28;16.80;99.90
26270;DHT22;15937;50.612;6.656;2022-10-16T20:03:32;16.80;99.90
26270;DHT22;15937;50.612;6.656;2022-10-16T20:07:35;16.80;99.90
26270;DHT22;15937;50.612;6.656;2022-10-16T20:11:38;16.80;99.90
26270;DHT22;15937;50.612;6.656;2022-10-16T20:15:40;16.80;99.90
26270;DHT22;15937;50.612;6.656;2022-10-16T20:19:42;16.70;99.90
26270;DHT22;15937;50.612;6.656;2022-10-16T20:23:44;16.70;99.90
26270;DHT22;15937;50.612;6.656;2022-10-16T20:27:47;16.70;99.90
26270;DHT22;15937;50.612;6.656;2022-10-16T20:31:50;16.80;99.90
26270;DHT22;15937;50.612;6.656;2022-10-16T20:35:51;16.80;99.90
26270;DHT22;15937;50.612;6.656;2022-10-16T20:39:53;16.80;99.90
26270;DHT22;15937;50.612;6.656;2022-10-16T20:43:55;16.90;99.90
26270;DHT22;15937;50.612;6.656;2022-10-16T20:47:57;16.90;99.90
26270;DHT22;15937;50.612;6.656;2022-10-16T20:52:04;16.80;99.90
26270;DHT22;15937;50.612;6.656;2022-10-16T20:56:08;16.80;99.90
26270;DHT22;15937;50.612;6.656;2022-10-16T21:00:10;16.80;99.90
26270;DHT22;15937;50.612;6.656;2022-10-16T21:04:12;16.80;99.90
26270;DHT22;15937;50.612;6.656;2022-10-16T21:08:14;16.80;99.90
26270;DHT22;15937;50.612;6.656;2022-10-16T21:12:28;16.80;99.90
26270;DHT22;15937;50.612;6.656;2022-10-16T21:16:31;16.80;99.90
26270;DHT22;15937;50.612;6.656;2022-10-16T21:20:34;16.80;99.90
26270;DHT22;15937;50.612;6.656;2022-10-16T21:24:36;16.70;99.90
26270;DHT22;15937;50.612;6.656;2022-10-16T21:28:40;16.70;99.90
26270;DHT22;15937;50.612;6.656;2022-10-16T21:32:49;16.60;99.90
26270;DHT22;15937;50.612;6.656;2022-10-16T21:37:02;16.60;99.90
26270;DHT22;15937;50.612;6.656;2022-10-16T21:45:20;16.60;99.90
26270;DHT22;15937;50.612;6.656;2022-10-16T21:49:26;16.70;99.90
26270;DHT22;15937;50.612;6.656;2022-10-16T21:53:31;16.60;99.90
26270;DHT22;15937;50.612;6.656;2022-10-16T21:57:33;16.60;99.90
26270;DHT22;15937;50.612;6.656;2022-10-16T22:01:36;16.50;99.90
26270;DHT22;15937;50.612;6.656;2022-10-16T22:05:38;16.50;99.90
26270;DHT22;15937;50.612;6.656;2022-10-16T22:09:39;16.50;99.90
26270;DHT22;15937;50.612;6.656;2022-10-16T22:13:41;16.60;99.90
26270;DHT22;15937;50.612;6.656;2022-10-16T22:17:43;16.60;99.90
26270;DHT22;15937;50.612;6.656;2022-10-16T22:21:44;16.60;99.90
26270;DHT22;15937;50.612;6.656;2022-10-16T22:25:47;16.70;99.90
26270;DHT22;15937;50.612;6.656;2022-10-16T22:29:49;16.70;99.90
26270;DHT22;15937;50.612;6.656;2022-10-16T22:33:58;16.80;99.90
26270;DHT22;15937;50.612;6.656;2022-10-16T22:38:02;16.80;99.90
26270;DHT22;15937;50.612;6.656;2022-10-16T22:42:04;16.70;99.90
26270;DHT22;15937;50.612;6.656;2022-10-16T22:46:06;16.80;99.90
26270;DHT22;15937;50.612;6.656;2022-10-16T22:50:08;16.90;99.90
26270;DHT22;15937;50.612;6.656;2022-10-16T22:54:10;16.90;99.90
26270;DHT22;15937;50.612;6.656;2022-10-16T22:58:11;17.10;99.90
26270;DHT22;15937;50.612;6.656;2022-10-16T23:02:13;17.10;99.90
26270;DHT22;15937;50.612;6.656;2022-10-16T23:06:15;17.20;99.90
26270;DHT22;15937;50.612;6.656;2022-10-16T23:10:16;17.30;99.90
26270;DHT22;15937;50.612;6.656;2022-10-16T23:14:19;17.30;99.90
26270;DHT22;15937;50.612;6.656;2022-10-16T23:18:21;17.40;99.90
26270;DHT22;15937;50.612;6.656;2022-10-16T23:22:23;17.40;99.90
26270;DHT22;15937;50.612;6.656;2022-10-16T23:26:25;17.40;99.90
26270;DHT22;15937;50.612;6.656;2022-10-16T23:30:27;17.40;99.90
26270;DHT22;15937;50.612;6.656;2022-10-16T23:34:28;17.40;99.90
26270;DHT22;15937;50.612;6.656;2022-10-16T23:38:30;17.30;99.90
26270;DHT22;15937;50.612;6.656;2022-10-16T23:42:32;17.40;99.90
26270;DHT22;15937;50.612;6.656;2022-10-16T23:46:33;17.30;99.90
26270;DHT22;15937;50.612;6.656;2022-10-16T23:50:35;17.40;99.90
26270;DHT22;15937;50.612;6.656;2022-10-16T23:54:36;17.40;99.90
26270;DHT22;15937;50.612;6.656;2022-10-16T23:58:38;17.30;99.90
